createdAt,value
2017-12-09T00:00:04.238Z,3.00
2017-12-09T00:02:32.482Z,2.90
2017-12-09T00:05:00.928Z,2.90
2017-12-09T00:07:29.204Z,3.00
2017-12-09T00:09:57.442Z,3.00
2017-12-09T00:12:25.702Z,3.00
2017-12-09T00:14:53.939Z,3.00
2017-12-09T00:17:22.178Z,2.90
2017-12-09T00:19:50.450Z,2.90
2017-12-09T00:22:30.534Z,2.80
2017-12-09T00:24:58.844Z,2.80
2017-12-09T00:27:27.080Z,2.70
2017-12-09T00:29:55.310Z,2.60
2017-12-09T00:32:23.576Z,2.50
2017-12-09T00:34:52.571Z,2.50
2017-12-09T00:37:20.810Z,2.40
2017-12-09T00:39:49.070Z,2.70
2017-12-09T00:42:20.261Z,2.80
2017-12-09T00:44:48.493Z,2.80
2017-12-09T00:47:17.766Z,2.80
2017-12-09T00:49:46.368Z,2.90
2017-12-09T00:52:14.596Z,2.70
2017-12-09T00:54:43.030Z,2.70
2017-12-09T00:57:11.259Z,2.80
2017-12-09T00:59:39.498Z,2.90
2017-12-09T01:02:07.754Z,2.80
2017-12-09T01:04:35.997Z,2.90
2017-12-09T01:07:04.224Z,2.80
2017-12-09T01:09:32.794Z,2.90
2017-12-09T01:12:01.018Z,3.00
2017-12-09T01:14:29.253Z,3.00
2017-12-09T01:17:10.034Z,3.10
2017-12-09T01:19:38.265Z,3.10
2017-12-09T01:22:06.497Z,3.10
2017-12-09T01:24:34.833Z,3.10
2017-12-09T01:27:03.834Z,2.90
2017-12-09T01:29:32.833Z,2.90
2017-12-09T01:32:01.854Z,2.70
2017-12-09T01:34:30.104Z,2.70
2017-12-09T01:36:59.101Z,2.60
2017-12-09T01:39:28.134Z,2.60
2017-12-09T01:41:56.359Z,2.60
2017-12-09T01:44:24.595Z,2.60
2017-12-09T01:46:53.257Z,2.50
2017-12-09T01:49:21.498Z,2.50
2017-12-09T01:51:50.265Z,2.60
2017-12-09T01:54:18.531Z,2.50
2017-12-09T01:56:46.771Z,2.40
2017-12-09T01:59:15.006Z,2.40
2017-12-09T02:01:43.266Z,2.40
2017-12-09T02:04:11.509Z,2.40
2017-12-09T02:06:39.741Z,2.40
2017-12-09T02:09:08.373Z,2.40
2017-12-09T02:11:36.605Z,2.40
2017-12-09T02:14:04.842Z,2.30
2017-12-09T02:16:33.115Z,2.30
2017-12-09T02:19:01.370Z,2.30
2017-12-09T02:21:29.610Z,2.20
2017-12-09T02:23:58.644Z,2.20
2017-12-09T02:26:26.894Z,2.30
2017-12-09T02:28:55.122Z,2.30
2017-12-09T02:31:23.782Z,2.30
2017-12-09T02:33:52.014Z,2.30
2017-12-09T02:36:20.289Z,2.20
2017-12-09T02:38:48.542Z,2.10
2017-12-09T02:41:16.778Z,2.10
2017-12-09T02:43:45.027Z,2.20
2017-12-09T02:46:14.077Z,2.20
2017-12-09T02:48:42.318Z,2.20
2017-12-09T02:51:10.558Z,2.10
2017-12-09T02:53:39.342Z,2.10
2017-12-09T02:56:07.578Z,2.20
2017-12-09T02:58:35.850Z,2.20
2017-12-09T03:01:04.109Z,2.30
2017-12-09T03:03:32.352Z,2.30
2017-12-09T03:06:00.573Z,2.30
2017-12-09T03:08:28.854Z,2.30
2017-12-09T03:10:57.086Z,2.30
2017-12-09T03:13:25.318Z,2.30
2017-12-09T03:15:53.633Z,2.30
2017-12-09T03:18:21.877Z,2.30
2017-12-09T03:20:50.102Z,2.20
2017-12-09T03:23:19.134Z,2.30
2017-12-09T03:25:47.366Z,2.20
2017-12-09T03:28:15.596Z,2.30
2017-12-09T03:30:43.853Z,2.30
2017-12-09T03:33:12.086Z,2.30
2017-12-09T03:35:40.313Z,2.30
2017-12-09T03:38:08.861Z,2.20
2017-12-09T03:40:37.870Z,2.30
2017-12-09T03:43:06.154Z,2.30
2017-12-09T03:45:34.422Z,2.40
2017-12-09T03:48:02.740Z,2.40
2017-12-09T03:50:30.958Z,2.50
2017-12-09T03:52:59.975Z,2.50
2017-12-09T03:55:28.949Z,2.50
2017-12-09T03:57:57.138Z,2.50
2017-12-09T04:00:25.737Z,2.40
2017-12-09T04:02:53.980Z,2.40
2017-12-09T04:05:22.385Z,2.40
2017-12-09T04:07:50.862Z,2.40
2017-12-09T04:10:19.093Z,2.30
2017-12-09T04:12:47.322Z,2.20
2017-12-09T04:15:15.645Z,2.30
2017-12-09T04:17:43.882Z,2.30
2017-12-09T04:20:12.117Z,2.40
2017-12-09T04:22:41.286Z,2.50
2017-12-09T04:25:09.521Z,2.40
2017-12-09T04:27:37.761Z,2.50
2017-12-09T04:30:06.017Z,2.40
2017-12-09T04:32:34.258Z,2.40
2017-12-09T04:35:02.498Z,2.40
2017-12-09T04:37:30.769Z,2.40
2017-12-09T04:39:58.997Z,2.40
2017-12-09T04:42:27.225Z,2.30
2017-12-09T04:44:56.658Z,2.30
2017-12-09T04:47:24.885Z,2.30
2017-12-09T04:49:53.121Z,2.30
2017-12-09T04:52:21.380Z,2.30
2017-12-09T04:54:49.627Z,2.30
2017-12-09T04:57:19.049Z,2.40
2017-12-09T04:59:48.073Z,2.40
2017-12-09T05:02:16.300Z,2.40
2017-12-09T05:04:44.539Z,2.50
2017-12-09T05:07:13.207Z,2.50
2017-12-09T05:09:41.437Z,2.60
2017-12-09T05:12:09.678Z,2.60
2017-12-09T05:14:37.932Z,2.60
2017-12-09T05:17:06.167Z,2.50
2017-12-09T05:19:34.405Z,2.60
2017-12-09T05:22:02.665Z,2.60
2017-12-09T05:24:30.902Z,2.60
2017-12-09T05:26:59.897Z,2.60
2017-12-09T05:29:28.993Z,2.70
2017-12-09T05:31:57.984Z,2.70
2017-12-09T05:34:26.994Z,2.70
2017-12-09T05:36:55.253Z,2.70
2017-12-09T05:39:24.254Z,2.70
2017-12-09T05:41:53.269Z,2.80
2017-12-09T05:44:21.523Z,2.70
2017-12-09T05:46:49.754Z,2.80
2017-12-09T05:49:17.990Z,2.80
2017-12-09T05:51:46.710Z,2.80
2017-12-09T05:54:14.948Z,2.70
2017-12-09T05:56:43.182Z,2.60
2017-12-09T05:59:11.738Z,2.70
2017-12-09T06:01:39.966Z,2.70
2017-12-09T06:04:08.966Z,2.70
2017-12-09T06:06:38.007Z,2.80
2017-12-09T06:09:06.233Z,2.70
2017-12-09T06:11:34.473Z,2.80
2017-12-09T06:14:03.034Z,2.80
2017-12-09T06:16:31.272Z,2.80
2017-12-09T06:18:59.510Z,2.70
2017-12-09T06:21:27.773Z,2.80
2017-12-09T06:23:56.055Z,2.70
2017-12-09T06:26:24.298Z,2.60
2017-12-09T06:28:52.558Z,2.70
2017-12-09T06:31:21.566Z,2.70
2017-12-09T06:33:49.802Z,2.70
2017-12-09T06:36:18.468Z,2.70
2017-12-09T06:38:46.673Z,2.70
2017-12-09T06:41:14.898Z,2.70
2017-12-09T06:43:43.158Z,2.70
2017-12-09T06:46:11.389Z,2.70
2017-12-09T06:48:39.621Z,2.70
2017-12-09T06:51:07.882Z,2.70
2017-12-09T06:53:36.122Z,2.70
2017-12-09T06:56:04.349Z,2.70
2017-12-09T06:58:32.814Z,2.60
2017-12-09T07:01:01.214Z,2.60
2017-12-09T07:03:29.445Z,2.60
2017-12-09T07:05:58.464Z,2.60
2017-12-09T07:08:26.718Z,2.60
2017-12-09T07:10:54.951Z,2.70
2017-12-09T07:13:23.209Z,2.60
2017-12-09T07:15:51.450Z,2.60
2017-12-09T07:18:19.679Z,2.60
2017-12-09T07:20:48.446Z,2.60
2017-12-09T07:23:16.686Z,2.60
2017-12-09T07:25:44.920Z,2.60
2017-12-09T07:28:13.186Z,2.50
2017-12-09T07:30:41.417Z,2.50
2017-12-09T07:33:09.648Z,2.50
2017-12-09T07:35:37.909Z,2.50
2017-12-09T07:38:06.146Z,2.50
2017-12-09T07:40:35.206Z,2.30
2017-12-09T07:43:03.870Z,2.30
2017-12-09T07:45:32.103Z,2.20
2017-12-09T07:48:00.334Z,2.20
2017-12-09T07:50:28.597Z,2.30
2017-12-09T07:52:56.832Z,2.30
2017-12-09T07:55:25.830Z,2.30
2017-12-09T07:57:54.850Z,2.20
2017-12-09T08:00:23.090Z,2.20
2017-12-09T08:02:53.192Z,2.40
2017-12-09T08:05:21.729Z,2.40
2017-12-09T08:07:49.967Z,2.50
2017-12-09T08:10:18.210Z,2.50
2017-12-09T08:12:46.481Z,2.50
2017-12-09T08:15:14.706Z,2.50
2017-12-09T08:17:43.710Z,2.50
2017-12-09T08:20:11.961Z,2.50
2017-12-09T08:22:40.958Z,2.60
2017-12-09T08:25:10.123Z,2.70
2017-12-09T08:27:38.658Z,2.60
2017-12-09T08:30:07.658Z,2.70
2017-12-09T08:32:35.889Z,2.60
2017-12-09T08:35:04.149Z,2.70
2017-12-09T08:37:32.385Z,2.70
2017-12-09T08:40:00.617Z,2.60
2017-12-09T08:42:28.886Z,2.60
2017-12-09T08:44:57.113Z,2.60
2017-12-09T08:47:25.358Z,2.60
2017-12-09T08:49:53.994Z,2.60
2017-12-09T08:52:22.235Z,2.70
2017-12-09T08:54:50.473Z,2.70
2017-12-09T08:57:18.729Z,2.70
2017-12-09T08:59:46.972Z,2.70
2017-12-09T09:02:15.206Z,2.60
2017-12-09T09:04:43.741Z,2.60
2017-12-09T09:07:11.982Z,2.60
2017-12-09T09:09:40.331Z,2.50
2017-12-09T09:12:09.205Z,2.60
2017-12-09T09:14:37.438Z,2.80
2017-12-09T09:17:05.681Z,3.00
2017-12-09T09:19:33.937Z,3.10
2017-12-09T09:22:02.176Z,3.30
2017-12-09T09:24:31.181Z,3.40
2017-12-09T09:26:59.445Z,3.40
2017-12-09T09:29:28.433Z,3.80
2017-12-09T09:31:57.445Z,3.90
2017-12-09T09:34:25.829Z,3.90
2017-12-09T09:36:54.074Z,4.00
2017-12-09T09:39:22.312Z,4.10
2017-12-09T09:41:50.571Z,4.20
2017-12-09T09:44:18.817Z,4.10
2017-12-09T09:46:47.850Z,4.20
2017-12-09T09:49:16.112Z,4.20
2017-12-09T09:51:44.370Z,4.40
2017-12-09T09:54:12.608Z,4.50
2017-12-09T09:56:41.263Z,4.60
2017-12-09T09:59:09.551Z,4.70
2017-12-09T10:01:37.760Z,4.90
2017-12-09T10:04:06.013Z,5.00
2017-12-09T10:06:34.585Z,4.90
2017-12-09T10:09:02.830Z,5.00
2017-12-09T10:11:31.121Z,4.80
2017-12-09T10:13:59.326Z,4.50
2017-12-09T10:16:27.570Z,4.50
2017-12-09T10:18:56.062Z,4.40
2017-12-09T10:21:24.302Z,4.20
2017-12-09T10:23:52.538Z,4.20
2017-12-09T10:26:20.794Z,4.20
2017-12-09T10:28:49.025Z,4.30
2017-12-09T10:31:18.186Z,4.30
2017-12-09T10:33:46.439Z,4.30
2017-12-09T10:36:14.674Z,4.40
2017-12-09T10:38:43.685Z,4.90
2017-12-09T10:41:12.318Z,4.90
2017-12-09T10:43:40.553Z,4.80
2017-12-09T10:46:08.789Z,4.60
2017-12-09T10:48:37.049Z,4.40
2017-12-09T10:51:05.272Z,4.70
2017-12-09T10:53:33.505Z,4.80
2017-12-09T10:56:01.986Z,4.80
2017-12-09T10:58:30.222Z,4.90
2017-12-09T11:00:58.465Z,4.90
2017-12-09T11:03:27.802Z,4.60
2017-12-09T11:05:56.038Z,4.60
2017-12-09T11:08:24.850Z,4.70
2017-12-09T11:10:53.110Z,4.90
2017-12-09T11:13:21.345Z,5.30
2017-12-09T11:15:49.583Z,5.50
2017-12-09T11:18:17.854Z,5.60
2017-12-09T11:20:46.270Z,5.20
2017-12-09T11:23:14.489Z,5.00
2017-12-09T11:25:43.576Z,4.50
2017-12-09T11:28:11.830Z,4.50
2017-12-09T11:30:40.057Z,4.30
2017-12-09T11:33:08.371Z,4.20
2017-12-09T11:35:37.568Z,4.20
2017-12-09T11:38:05.801Z,4.10
2017-12-09T11:40:34.055Z,4.10
2017-12-09T11:43:03.059Z,3.90
2017-12-09T11:45:33.238Z,4.00
2017-12-09T11:48:02.621Z,4.00
2017-12-09T11:50:30.861Z,4.00
2017-12-09T11:52:59.123Z,3.90
2017-12-09T11:55:27.381Z,4.00
2017-12-09T11:57:55.626Z,4.00
2017-12-09T12:00:24.145Z,4.00
2017-12-09T12:02:52.550Z,4.00
2017-12-09T12:05:21.574Z,4.10
2017-12-09T12:07:49.839Z,4.10
2017-12-09T12:10:19.208Z,4.20
2017-12-09T12:12:49.441Z,4.40
2017-12-09T12:15:18.488Z,4.40
2017-12-09T12:17:46.742Z,4.40
2017-12-09T12:20:15.177Z,4.50
2017-12-09T12:22:43.440Z,4.60
2017-12-09T12:25:12.458Z,5.20
2017-12-09T12:27:40.923Z,5.10
2017-12-09T12:30:09.294Z,5.60
2017-12-09T12:32:37.741Z,5.90
2017-12-09T12:35:06.092Z,6.00
2017-12-09T12:37:35.098Z,5.70
2017-12-09T12:40:03.354Z,5.70
2017-12-09T12:42:31.594Z,5.60
2017-12-09T12:44:59.864Z,5.70
2017-12-09T12:47:28.285Z,5.60
2017-12-09T12:49:56.513Z,5.40
2017-12-09T12:52:24.810Z,5.60
2017-12-09T12:54:53.421Z,5.60
2017-12-09T12:57:23.643Z,5.70
2017-12-09T12:59:51.863Z,5.60
2017-12-09T13:02:22.537Z,5.40
2017-12-09T13:04:50.909Z,5.20
2017-12-09T13:07:19.414Z,5.00
2017-12-09T13:09:48.622Z,4.90
2017-12-09T13:12:18.806Z,5.10
2017-12-09T13:14:47.192Z,5.00
2017-12-09T13:17:17.520Z,5.00
2017-12-09T13:19:45.786Z,4.80
2017-12-09T13:22:14.166Z,4.80
2017-12-09T13:24:42.428Z,4.90
2017-12-09T13:27:10.675Z,5.00
2017-12-09T13:29:38.918Z,4.80
2017-12-09T13:32:07.265Z,5.00
2017-12-09T13:34:35.481Z,5.10
2017-12-09T13:37:04.637Z,5.20
2017-12-09T13:39:33.118Z,5.20
2017-12-09T13:42:01.522Z,5.10
2017-12-09T13:44:29.886Z,5.10
2017-12-09T13:46:58.161Z,5.00
2017-12-09T13:49:26.413Z,4.80
2017-12-09T13:51:54.734Z,4.60
2017-12-09T13:54:24.038Z,4.60
2017-12-09T13:56:52.406Z,4.50
2017-12-09T13:59:20.645Z,4.50
2017-12-09T14:01:48.922Z,4.50
2017-12-09T14:04:17.234Z,4.60
2017-12-09T14:06:45.542Z,4.50
2017-12-09T14:09:13.781Z,4.60
2017-12-09T14:11:42.018Z,4.60
2017-12-09T14:14:10.266Z,4.80
2017-12-09T14:16:39.459Z,4.80
2017-12-09T14:19:07.776Z,4.80
2017-12-09T14:21:35.999Z,4.60
2017-12-09T14:24:04.293Z,4.60
2017-12-09T14:26:33.587Z,4.50
2017-12-09T14:29:01.933Z,4.50
2017-12-09T14:31:30.346Z,4.30
2017-12-09T14:33:59.354Z,4.10
2017-12-09T14:36:28.502Z,4.10
2017-12-09T14:38:57.088Z,4.00
2017-12-09T14:41:26.317Z,4.00
2017-12-09T14:43:54.677Z,3.80
2017-12-09T14:46:23.094Z,3.70
2017-12-09T14:48:52.358Z,3.50
2017-12-09T14:51:20.635Z,3.50
2017-12-09T14:53:48.919Z,3.50
2017-12-09T14:56:17.156Z,3.40
2017-12-09T14:58:45.450Z,3.40
2017-12-09T15:01:13.758Z,3.40
2017-12-09T15:03:42.006Z,3.30
2017-12-09T15:06:10.403Z,3.30
2017-12-09T15:08:38.670Z,3.10
2017-12-09T15:11:06.913Z,3.10
2017-12-09T15:13:35.167Z,3.10
2017-12-09T15:16:03.659Z,3.20
2017-12-09T15:18:31.906Z,3.20
2017-12-09T15:21:00.376Z,3.00
2017-12-09T15:23:31.915Z,2.90
2017-12-09T15:26:00.150Z,2.90
2017-12-09T15:28:28.405Z,3.10
2017-12-09T15:30:57.678Z,2.80
2017-12-09T15:33:26.106Z,2.80
2017-12-09T15:35:54.353Z,2.90
2017-12-09T15:38:22.614Z,2.70
2017-12-09T15:40:51.095Z,2.80
2017-12-09T15:43:19.539Z,2.90
2017-12-09T15:45:48.445Z,2.90
2017-12-09T15:48:16.683Z,2.90
2017-12-09T15:50:45.000Z,2.90
2017-12-09T15:53:13.280Z,2.90
2017-12-09T15:55:41.693Z,3.00
2017-12-09T15:58:10.705Z,3.00
2017-12-09T16:00:40.958Z,3.20
2017-12-09T16:03:09.314Z,3.10
2017-12-09T16:05:37.684Z,3.20
2017-12-09T16:08:06.750Z,3.10
2017-12-09T16:10:35.004Z,3.00
2017-12-09T16:13:03.246Z,3.00
2017-12-09T16:15:32.730Z,3.10
2017-12-09T16:18:01.758Z,3.10
2017-12-09T16:20:30.060Z,3.10
2017-12-09T16:22:58.484Z,2.90
2017-12-09T16:28:02.641Z,2.90
2017-12-09T16:30:30.959Z,3.10
2017-12-09T16:33:00.245Z,3.00
2017-12-09T16:35:30.513Z,3.00
2017-12-09T16:38:02.546Z,3.00
2017-12-09T16:40:30.978Z,3.00
2017-12-09T16:43:00.012Z,2.90
2017-12-09T16:45:29.230Z,2.90
2017-12-09T16:47:58.010Z,3.00
2017-12-09T16:50:26.237Z,3.00
2017-12-09T16:52:54.493Z,2.90
2017-12-09T16:55:23.753Z,3.00
2017-12-09T16:57:52.232Z,3.00
2017-12-09T17:00:20.466Z,3.00
2017-12-09T17:02:49.881Z,3.00
2017-12-09T17:05:18.118Z,3.00
2017-12-09T17:07:47.383Z,3.00
2017-12-09T17:10:15.869Z,3.00
2017-12-09T17:12:44.146Z,3.00
2017-12-09T17:15:12.558Z,3.00
2017-12-09T17:17:43.095Z,2.80
2017-12-09T17:20:13.290Z,2.80
2017-12-09T17:22:41.662Z,2.80
2017-12-09T17:25:14.073Z,2.80
2017-12-09T17:27:43.073Z,2.70
2017-12-09T17:30:13.242Z,2.70
2017-12-09T17:32:41.907Z,2.60
2017-12-09T17:35:10.379Z,2.60
2017-12-09T17:37:42.699Z,2.70
2017-12-09T17:40:11.094Z,2.70
2017-12-09T17:42:40.382Z,2.60
2017-12-09T17:45:08.951Z,2.50
2017-12-09T17:47:37.210Z,2.60
2017-12-09T17:50:05.525Z,2.60
2017-12-09T17:52:34.810Z,2.60
2017-12-09T17:55:03.363Z,2.60
2017-12-09T17:57:32.798Z,2.50
2017-12-09T18:00:01.186Z,2.60
2017-12-09T18:02:30.682Z,2.60
2017-12-09T18:05:00.090Z,2.60
2017-12-09T18:07:28.333Z,2.70
2017-12-09T18:09:56.613Z,2.60
2017-12-09T18:12:27.265Z,2.70
2017-12-09T18:14:55.494Z,2.70
2017-12-09T18:17:25.742Z,2.80
2017-12-09T18:19:54.970Z,2.70
2017-12-09T18:22:23.396Z,2.80
2017-12-09T18:24:54.550Z,2.70
2017-12-09T18:27:25.027Z,2.70
2017-12-09T18:29:53.477Z,2.70
2017-12-09T18:32:23.998Z,2.70
2017-12-09T18:34:52.317Z,2.70
2017-12-09T18:37:20.702Z,2.60
2017-12-09T18:39:49.309Z,2.60
2017-12-09T18:42:17.759Z,2.60
2017-12-09T18:44:46.196Z,2.80
2017-12-09T18:47:15.489Z,2.70
2017-12-09T18:49:48.723Z,2.70
2017-12-09T18:52:17.506Z,2.60
2017-12-09T18:54:45.829Z,2.50
2017-12-09T18:57:16.047Z,2.60
2017-12-09T18:59:47.244Z,2.60
2017-12-09T19:02:15.546Z,2.60
2017-12-09T19:04:44.843Z,2.70
2017-12-09T19:07:13.353Z,2.70
2017-12-09T19:09:41.797Z,2.60
2017-12-09T19:12:10.054Z,2.60
2017-12-09T19:14:39.350Z,2.70
2017-12-09T19:17:09.514Z,2.60
2017-12-09T19:19:38.493Z,2.60
2017-12-09T19:22:08.182Z,2.70
2017-12-09T19:24:36.472Z,2.70
2017-12-09T19:27:04.874Z,2.50
2017-12-09T19:29:34.246Z,2.60
2017-12-09T19:32:07.506Z,2.60
2017-12-09T19:34:36.545Z,2.50
2017-12-09T19:37:05.755Z,2.50
2017-12-09T19:39:34.139Z,2.60
2017-12-09T19:42:02.750Z,2.50
2017-12-09T19:44:31.198Z,2.60
2017-12-09T19:46:59.566Z,2.70
2017-12-09T19:49:31.990Z,2.70
2017-12-09T19:52:01.042Z,2.70
2017-12-09T19:54:29.321Z,2.60
2017-12-09T19:56:57.732Z,2.60
2017-12-09T19:59:28.842Z,2.70
2017-12-09T20:02:02.955Z,2.70
2017-12-09T20:04:31.210Z,2.60
2017-12-09T20:06:59.505Z,2.70
2017-12-09T20:09:27.903Z,2.80
2017-12-09T20:11:56.362Z,2.90
2017-12-09T20:14:25.805Z,2.70
2017-12-09T20:16:55.502Z,2.80
2017-12-09T20:19:25.902Z,2.80
2017-12-09T20:21:54.129Z,2.80
2017-12-09T20:24:23.314Z,2.90
2017-12-09T20:26:52.759Z,2.80
2017-12-09T20:29:21.070Z,2.80
2017-12-09T20:31:49.961Z,2.90
2017-12-09T20:34:18.206Z,2.80
2017-12-09T20:36:47.438Z,2.80
2017-12-09T20:39:19.838Z,2.80
2017-12-09T20:41:49.146Z,2.90
2017-12-09T20:44:18.158Z,2.90
2017-12-09T20:46:46.728Z,2.90
2017-12-09T20:49:15.166Z,2.80
2017-12-09T20:51:46.630Z,2.90
2017-12-09T20:54:15.097Z,2.90
2017-12-09T20:56:43.408Z,2.70
2017-12-09T20:59:12.534Z,2.70
2017-12-09T21:01:42.117Z,2.70
2017-12-09T21:04:11.294Z,2.80
2017-12-09T21:06:39.669Z,2.80
2017-12-09T21:09:08.254Z,2.80
2017-12-09T21:11:36.738Z,2.80
2017-12-09T21:14:05.299Z,2.80
2017-12-09T21:16:34.770Z,2.70
2017-12-09T21:19:05.230Z,2.60
2017-12-09T21:21:33.749Z,2.60
2017-12-09T21:24:05.138Z,2.50
2017-12-09T21:26:35.658Z,2.40
2017-12-09T21:29:03.991Z,2.50
2017-12-09T21:31:32.559Z,2.50
2017-12-09T21:34:02.034Z,2.40
2017-12-09T21:36:30.362Z,2.40
2017-12-09T21:38:58.783Z,2.40
2017-12-09T21:41:31.087Z,2.40
2017-12-09T21:43:59.506Z,2.40
2017-12-09T21:52:35.615Z,2.20
2017-12-09T21:55:05.507Z,2.20
2017-12-09T21:57:33.787Z,2.20
2017-12-09T22:00:02.971Z,2.20
2017-12-09T22:02:31.208Z,2.10
2017-12-09T22:05:01.168Z,2.20
2017-12-09T22:07:30.197Z,2.00
2017-12-09T22:09:58.429Z,2.00
2017-12-09T22:12:26.670Z,2.10
2017-12-09T22:14:55.301Z,2.10
2017-12-09T22:17:23.538Z,2.20
2017-12-09T22:19:51.882Z,2.10
2017-12-09T22:22:20.122Z,2.10
2017-12-09T22:24:48.361Z,2.10
2017-12-09T22:27:16.829Z,2.20
2017-12-09T22:29:45.214Z,2.20
2017-12-09T22:32:13.886Z,2.20
2017-12-09T22:34:42.118Z,2.20
2017-12-09T22:37:10.718Z,2.20
2017-12-09T22:39:38.954Z,2.10
2017-12-09T22:42:07.420Z,2.20
2017-12-09T22:44:35.673Z,2.20
2017-12-09T22:47:07.844Z,2.20
2017-12-09T22:49:36.101Z,2.30
2017-12-09T22:52:04.369Z,2.30
2017-12-09T22:54:32.670Z,2.30
2017-12-09T22:57:01.490Z,2.30
2017-12-09T22:59:29.734Z,2.30
2017-12-09T23:01:57.974Z,2.30
2017-12-09T23:04:26.361Z,2.30
2017-12-09T23:06:54.574Z,2.30
2017-12-09T23:09:27.891Z,2.30
2017-12-09T23:11:56.132Z,2.30
2017-12-09T23:14:24.408Z,2.20
2017-12-09T23:16:52.962Z,2.20
2017-12-09T23:19:21.234Z,2.10
2017-12-09T23:21:49.728Z,2.10
2017-12-09T23:24:17.970Z,2.10
2017-12-09T23:26:46.210Z,2.10
2017-12-09T23:29:14.450Z,2.10
2017-12-09T23:31:42.720Z,2.00
2017-12-09T23:34:11.714Z,2.10
2017-12-09T23:36:40.714Z,2.10
2017-12-09T23:39:10.938Z,2.00
2017-12-09T23:41:39.246Z,2.00
2017-12-09T23:44:07.642Z,2.00
2017-12-09T23:46:35.951Z,2.00
2017-12-09T23:49:04.169Z,2.00
2017-12-09T23:51:32.406Z,1.90
2017-12-09T23:54:01.430Z,1.90
2017-12-09T23:56:29.829Z,1.90
2017-12-09T23:58:58.065Z,1.80
